Time;durP1;ratioP1;P1;durP2;ratioP2;P2;SDS_P1;SDS_P2;PMS_P1;PMS_P2;Temp;Humidity;BMP_temperature;BMP_pressure;BME280_temperature;BME280_humidity;BME280_pressure;Samples;Min_cycle;Max_cycle;Signal;HPM_P1;HPM_P2
2023/09/15 00:00:47;;;;;;;22.15;11.38;;;;;;;17.34;53.54;100702.64;1750715;81;21914;-53
2023/09/15 00:03:54;;;;;;;26.40;11.90;;;;;;;17.29;53.78;100691.88;1751109;81;21319;-53
2023/09/15 00:07:03;;;;;;;28.15;11.75;;;;;;;17.23;53.96;100696.88;1751093;80;21355;-54
2023/09/15 00:10:12;;;;;;;21.62;12.47;;;;;;;17.11;54.04;100686.95;1751042;82;21362;-54
2023/09/15 00:13:18;;;;;;;17.55;11.80;;;;;;;17.01;54.21;100685.67;1751087;82;21326;-54
2023/09/15 00:16:24;;;;;;;22.13;12.13;;;;;;;16.88;54.34;100687.02;1751054;82;21418;-54
2023/09/15 00:19:31;;;;;;;20.97;12.68;;;;;;;16.72;54.55;100690.16;1751061;80;22421;-52
2023/09/15 00:22:37;;;;;;;29.27;13.45;;;;;;;16.63;54.87;100688.66;1750810;82;21888;-53
2023/09/15 00:25:45;;;;;;;23.15;13.83;;;;;;;16.50;55.02;100678.92;1750988;80;21863;-53
2023/09/15 00:28:52;;;;;;;27.80;14.15;;;;;;;16.42;55.38;100678.55;1750942;82;21352;-53
2023/09/15 00:31:58;;;;;;;25.10;13.25;;;;;;;16.35;55.67;100675.75;1751111;80;21351;-54
2023/09/15 00:35:05;;;;;;;23.73;13.10;;;;;;;16.31;55.97;100674.48;1751047;82;21366;-53
2023/09/15 00:38:31;;;;;;;24.30;14.20;;;;;;;16.23;56.16;100660.84;1751146;82;21386;-53
2023/09/15 00:41:38;;;;;;;22.37;12.98;;;;;;;16.15;56.38;100661.53;1673940;85;21310;-53
2023/09/15 00:44:45;;;;;;;20.10;12.05;;;;;;;16.09;56.65;100659.04;1736618;82;21350;-53
2023/09/15 00:48:04;;;;;;;23.75;12.90;;;;;;;16.01;56.83;100644.05;1735760;82;21404;-54
2023/09/15 00:51:10;;;;;;;26.60;13.75;;;;;;;15.95;57.08;100649.53;1735638;82;21386;-52
2023/09/15 00:54:16;;;;;;;22.80;13.80;;;;;;;15.83;57.34;100646.48;1735655;82;21863;-53
2023/09/15 00:57:21;;;;;;;23.50;13.58;;;;;;;15.79;57.63;100658.97;1735681;81;21367;-54
2023/09/15 01:00:28;;;;;;;20.43;12.80;;;;;;;15.76;57.93;100662.14;1735496;82;21338;-53
2023/09/15 01:03:35;;;;;;;23.62;14.05;;;;;;;15.75;58.17;100652.69;1714723;82;21295;-53
2023/09/15 01:06:43;;;;;;;21.65;12.75;;;;;;;15.72;58.43;100645.67;1735656;82;21330;-54
2023/09/15 01:09:49;;;;;;;20.80;13.70;;;;;;;15.73;58.68;100657.03;1735596;82;21405;-54
2023/09/15 01:12:56;;;;;;;23.22;13.58;;;;;;;15.72;58.92;100653.95;1735686;82;21314;-54
2023/09/15 01:16:35;;;;;;;19.65;13.85;;;;;;;15.67;58.99;100656.47;1735541;82;21346;-54
2023/09/15 01:20:10;;;;;;;23.18;14.00;;;;;;;15.61;59.19;100649.52;1736001;82;21342;-54
2023/09/15 01:23:30;;;;;;;21.45;13.98;;;;;;;15.59;59.51;100641.44;1735471;82;21382;-55
2023/09/15 01:26:56;;;;;;;19.95;13.30;;;;;;;15.58;59.82;100638.36;1733690;82;21430;-54
2023/09/15 01:30:02;;;;;;;19.35;13.30;;;;;;;15.58;60.10;100634.23;1703898;82;21510;-54
2023/09/15 01:33:13;;;;;;;20.97;13.58;;;;;;;15.61;60.37;100638.48;1735934;82;21350;-53
2023/09/15 01:36:17;;;;;;;22.67;14.40;;;;;;;15.62;60.52;100647.93;1736277;82;21338;-53
2023/09/15 01:39:30;;;;;;;21.27;13.58;;;;;;;15.61;60.60;100635.72;1735509;81;21350;-54
2023/09/15 01:42:31;;;;;;;21.52;14.25;;;;;;;15.54;60.62;100629.31;1737517;82;21366;-54
2023/09/15 01:45:37;;;;;;;23.10;14.70;;;;;;;15.49;60.84;100632.66;1737489;82;21389;-55
2023/09/15 01:48:45;;;;;;;22.48;14.15;;;;;;;15.50;61.15;100626.62;1737890;82;21361;-53
2023/09/15 01:51:52;;;;;;;22.25;15.13;;;;;;;15.53;61.39;100617.42;1737405;82;21494;-54
2023/09/15 01:54:58;;;;;;;24.85;14.47;;;;;;;15.56;61.58;100617.01;1737491;82;21357;-54
2023/09/15 01:58:04;;;;;;;23.22;14.95;;;;;;;15.54;61.70;100617.73;1737608;81;21870;-53
2023/09/15 02:01:12;;;;;;;20.30;13.93;;;;;;;15.57;61.89;100630.29;1737488;82;21220;-53
2023/09/15 02:04:18;;;;;;;23.95;14.90;;;;;;;15.56;61.99;100630.80;1737445;82;21392;-54
2023/09/15 02:07:23;;;;;;;20.02;15.20;;;;;;;15.57;62.14;100622.84;1737584;82;21414;-54
2023/09/15 02:10:29;;;;;;;25.68;16.25;;;;;;;15.58;62.32;100620.43;1737446;82;21179;-54
2023/09/15 02:13:36;;;;;;;24.12;15.15;;;;;;;15.57;62.48;100618.70;1737462;82;21720;-54
2023/09/15 02:16:42;;;;;;;21.80;14.07;;;;;;;15.60;62.69;100621.05;1737450;82;21322;-54
2023/09/15 02:19:50;;;;;;;21.57;14.83;;;;;;;15.62;62.87;100612.05;1737530;82;21340;-54
2023/09/15 02:23:03;;;;;;;26.00;16.05;;;;;;;15.63;63.03;100597.22;1737457;82;21199;-55
2023/09/15 02:26:10;;;;;;;22.65;15.60;;;;;;;15.66;63.26;100600.09;1737754;81;21219;-54
2023/09/15 02:29:17;;;;;;;22.75;16.05;;;;;;;15.68;63.45;100612.61;1737644;82;21161;-55
2023/09/15 02:32:23;;;;;;;22.27;16.00;;;;;;;15.69;63.56;100607.95;1737456;82;21226;-55
2023/09/15 02:35:30;;;;;;;27.02;16.67;;;;;;;15.70;63.78;100611.89;1737454;81;21253;-54
2023/09/15 02:38:36;;;;;;;20.52;15.55;;;;;;;15.72;64.00;100617.20;1737531;81;21238;-55
2023/09/15 02:41:43;;;;;;;23.57;16.60;;;;;;;15.74;64.11;100618.73;1738866;81;21255;-54
2023/09/15 02:44:51;;;;;;;26.68;16.73;;;;;;;15.75;64.22;100598.34;1743135;82;21195;-53
2023/09/15 02:47:59;;;;;;;23.92;16.70;;;;;;;15.76;64.33;100598.65;1743256;82;21203;-54
2023/09/15 02:51:06;;;;;;;26.45;16.55;;;;;;;15.75;64.36;100605.23;1743156;81;21203;-54
2023/09/15 02:54:12;;;;;;;22.85;16.50;;;;;;;15.73;64.48;100618.94;1743184;82;21254;-54
2023/09/15 02:57:18;;;;;;;20.88;15.88;;;;;;;15.70;64.58;100627.07;1743265;82;21179;-55
2023/09/15 03:00:25;;;;;;;22.05;15.98;;;;;;;15.69;64.78;100635.05;1743167;82;21195;-54
2023/09/15 03:03:31;;;;;;;25.20;16.50;;;;;;;15.69;64.93;100637.80;1743274;82;21727;-54
2023/09/15 03:06:37;;;;;;;24.10;17.30;;;;;;;15.69;65.05;100639.19;1743092;82;21774;-55
2023/09/15 03:09:44;;;;;;;28.23;16.65;;;;;;;15.70;65.24;100632.59;1743236;82;21195;-54
2023/09/15 03:12:51;;;;;;;21.80;16.35;;;;;;;15.71;65.39;100631.56;1743142;82;21240;-54
2023/09/15 03:15:57;;;;;;;25.92;17.80;;;;;;;15.73;65.55;100631.35;1743186;81;21210;-55
2023/09/15 03:19:05;;;;;;;25.55;17.25;;;;;;;15.73;65.62;100630.80;1743122;82;21195;-55
2023/09/15 03:22:05;;;;;;;26.70;17.12;;;;;;;15.73;65.78;100628.05;1743351;82;21218;-54
2023/09/15 03:25:14;;;;;;;24.27;17.02;;;;;;;15.74;65.92;100639.95;1743071;82;21180;-56
2023/09/15 03:28:21;;;;;;;24.55;17.87;;;;;;;15.74;66.03;100630.29;1743081;82;21179;-54
2023/09/15 03:31:27;;;;;;;25.32;17.73;;;;;;;15.73;66.12;100628.59;1743286;82;21207;-54
2023/09/15 03:34:38;;;;;;;23.62;17.30;;;;;;;15.76;66.29;100622.66;1743414;82;21168;-55
2023/09/15 03:37:44;;;;;;;24.77;17.37;;;;;;;15.77;66.42;100645.92;1743122;81;21779;-54
2023/09/15 03:40:50;;;;;;;26.65;17.95;;;;;;;15.79;66.61;100651.23;1743190;82;21214;-55
2023/09/15 03:43:56;;;;;;;25.32;17.75;;;;;;;15.79;66.73;100652.07;1747287;81;21202;-55
2023/09/15 03:47:02;;;;;;;22.62;17.48;;;;;;;15.79;66.87;100649.31;1737949;82;21350;-55
2023/09/15 03:50:09;;;;;;;24.77;17.90;;;;;;;15.80;67.02;100648.27;1743401;82;21336;-54
2023/09/15 03:53:17;;;;;;;25.75;17.35;;;;;;;15.80;67.09;100646.89;1684393;85;21386;-54
2023/09/15 03:56:23;;;;;;;26.97;17.05;;;;;;;15.81;67.19;100643.06;1712747;84;21937;-55
2023/09/15 03:59:29;;;;;;;24.00;18.12;;;;;;;15.84;67.32;100645.42;1743307;82;21527;-55
2023/09/15 04:02:35;;;;;;;23.67;17.85;;;;;;;15.84;67.41;100645.42;1743512;82;21326;-55
2023/09/15 04:05:41;;;;;;;26.70;19.05;;;;;;;15.85;67.54;100648.52;1714831;82;21333;-55
2023/09/15 04:08:48;;;;;;;23.90;18.42;;;;;;;15.88;67.70;100654.16;1721668;82;21318;-54
2023/09/15 04:11:53;;;;;;;25.68;18.42;;;;;;;15.90;67.81;100642.39;1684208;85;21386;-56
2023/09/15 04:15:01;;;;;;;23.87;18.65;;;;;;;15.91;67.96;100639.42;1712803;82;21212;-55
2023/09/15 04:18:08;;;;;;;23.83;19.95;;;;;;;15.94;68.07;100636.25;1743436;82;21474;-56
2023/09/15 04:21:13;;;;;;;37.28;21.07;;;;;;;15.95;68.14;100635.18;1680966;84;21423;-55
2023/09/15 04:24:21;;;;;;;25.27;19.87;;;;;;;15.95;68.23;100640.70;1706369;83;21219;-55
2023/09/15 04:27:28;;;;;;;32.10;19.85;;;;;;;15.98;68.34;100636.15;1711912;83;21381;-55
2023/09/15 04:30:34;;;;;;;29.50;20.62;;;;;;;15.99;68.50;100642.02;1669946;85;21884;-55
2023/09/15 04:33:40;;;;;;;28.15;20.65;;;;;;;16.01;68.58;100637.14;1725586;81;21308;-55
2023/09/15 04:36:47;;;;;;;27.95;20.80;;;;;;;16.02;68.69;100642.98;1737046;81;21855;-55
2023/09/15 04:39:53;;;;;;;28.90;21.52;;;;;;;16.04;68.76;100636.73;1735634;82;21369;-54
2023/09/15 04:43:04;;;;;;;25.70;20.17;;;;;;;16.05;68.87;100637.05;1736898;82;21365;-56
2023/09/15 04:46:08;;;;;;;26.97;21.37;;;;;;;16.07;69.02;100639.08;1737194;82;21845;-55
2023/09/15 04:49:14;;;;;;;29.05;21.23;;;;;;;16.10;69.09;100634.53;1735588;82;21423;-55
2023/09/15 04:52:21;;;;;;;26.82;21.48;;;;;;;16.13;69.23;100631.34;1710509;82;21378;-55
2023/09/15 04:55:27;;;;;;;30.48;21.20;;;;;;;16.17;69.34;100638.15;1651095;86;21248;-54
2023/09/15 04:58:34;;;;;;;28.70;21.33;;;;;;;16.20;69.45;100640.53;1652779;85;21236;-54
2023/09/15 05:01:41;;;;;;;29.27;21.10;;;;;;;16.22;69.54;100637.56;1692372;84;21225;-53
2023/09/15 05:04:49;;;;;;;28.32;21.68;;;;;;;16.22;69.60;100634.25;1724353;82;21250;-55
2023/09/15 05:07:54;;;;;;;25.45;19.77;;;;;;;16.23;69.72;100635.97;1676231;84;21484;-55
2023/09/15 05:11:00;;;;;;;28.70;22.02;;;;;;;16.26;69.86;100637.45;1737202;82;21358;-54
2023/09/15 05:14:06;;;;;;;26.82;21.57;;;;;;;16.28;70.00;100634.80;1740828;81;21169;-55
2023/09/15 05:17:11;;;;;;;29.23;21.55;;;;;;;16.32;70.10;100640.77;1728376;82;21413;-56
2023/09/15 05:20:18;;;;;;;29.48;21.05;;;;;;;16.34;70.28;100631.75;1734596;81;21228;-54
2023/09/15 05:23:25;;;;;;;28.55;21.02;;;;;;;16.36;70.38;100634.62;1723227;81;21219;-54
2023/09/15 05:26:32;;;;;;;30.20;20.80;;;;;;;16.38;70.46;100637.17;1678097;85;21328;-54
2023/09/15 05:29:39;;;;;;;25.60;19.85;;;;;;;16.39;70.54;100643.05;1719291;81;21355;-54
2023/09/15 05:32:45;;;;;;;26.20;21.02;;;;;;;16.40;70.64;100646.98;1693579;84;21721;-55
2023/09/15 05:35:53;;;;;;;28.17;21.82;;;;;;;16.43;70.75;100653.47;1695063;84;21195;-55
2023/09/15 05:38:59;;;;;;;30.10;20.52;;;;;;;16.47;70.90;100654.47;1730156;82;21195;-54
2023/09/15 05:42:03;;;;;;;28.05;22.45;;;;;;;16.51;71.07;100647.48;1736453;82;21365;-56
2023/09/15 05:45:09;;;;;;;31.42;21.10;;;;;;;16.56;71.20;100644.41;1734374;81;21896;-56
2023/09/15 05:48:22;;;;;;;28.57;21.45;;;;;;;16.63;71.29;100643.04;1747454;81;21196;-56
2023/09/15 05:51:23;;;;;;;28.73;20.45;;;;;;;16.68;71.41;100646.87;1742082;82;21353;-55
2023/09/15 05:54:30;;;;;;;26.05;20.12;;;;;;;16.75;71.54;100634.45;1746693;79;21615;-55
2023/09/15 05:57:36;;;;;;;28.85;20.15;;;;;;;16.81;71.64;100633.63;1735521;82;21466;-55
2023/09/15 06:00:42;;;;;;;25.45;20.35;;;;;;;16.85;71.71;100628.85;1734008;81;21772;-56
2023/09/15 06:03:48;;;;;;;29.27;20.62;;;;;;;16.91;71.84;100625.75;1740561;80;21361;-55
2023/09/15 06:06:56;;;;;;;28.50;21.07;;;;;;;16.97;71.96;100630.44;1746220;82;21323;-56
2023/09/15 06:21:09;;;;;;;27.37;21.07;;;;;;;17.46;71.66;100686.27;1783732;79;28866;-60
2023/09/15 06:24:18;;;;;;;33.20;21.42;;;;;;;17.41;71.62;100677.74;1771177;80;21377;-61
2023/09/15 06:27:24;;;;;;;28.52;19.73;;;;;;;17.39;71.64;100672.94;1735221;82;21366;-61
2023/09/15 06:30:30;;;;;;;25.77;17.55;;;;;;;17.36;71.83;100667.28;1731447;80;21248;-63
2023/09/15 06:33:38;;;;;;;33.28;25.65;;;;;;;17.32;71.91;100670.69;1741198;80;21457;-62
2023/09/15 06:36:45;;;;;;;23.87;18.23;;;;;;;17.26;72.11;100676.56;1758042;80;21470;-61
2023/09/15 06:39:52;;;;;;;24.95;19.77;;;;;;;17.24;72.28;100671.77;1742244;82;21897;-62
2023/09/15 06:43:00;;;;;;;28.60;19.40;;;;;;;17.21;72.42;100665.79;1747415;82;21183;-61
2023/09/15 06:46:08;;;;;;;26.65;19.92;;;;;;;17.19;72.58;100660.99;1737723;81;21369;-62
2023/09/15 06:49:21;;;;;;;25.92;19.65;;;;;;;17.17;72.70;100662.59;1732735;82;21215;-63
2023/09/15 06:52:23;;;;;;;26.17;20.77;;;;;;;17.15;72.83;100662.49;1746949;82;21211;-63
2023/09/15 06:55:30;;;;;;;27.62;21.60;;;;;;;17.12;72.86;100662.92;1741448;82;21373;-62
2023/09/15 06:58:36;;;;;;;27.32;21.30;;;;;;;17.11;72.99;100652.93;1736151;82;21211;-60
2023/09/15 07:01:46;;;;;;;27.13;20.77;;;;;;;17.07;73.02;100661.31;1728556;82;21365;-62
2023/09/15 07:04:55;;;;;;;24.80;20.10;;;;;;;17.03;72.99;100660.05;1733902;82;21361;-61
2023/09/15 07:08:01;;;;;;;25.52;20.15;;;;;;;16.99;73.07;100667.91;1715196;82;21412;-60
2023/09/15 07:11:10;;;;;;;24.35;19.82;;;;;;;16.94;73.06;100669.58;1706396;82;21262;-61
2023/09/15 07:14:18;;;;;;;24.80;19.87;;;;;;;16.85;73.11;100659.78;1745137;82;21427;-62
2023/09/15 07:17:24;;;;;;;22.82;20.20;;;;;;;16.83;73.25;100670.20;1734935;82;21256;-60
2023/09/15 07:20:33;;;;;;;23.75;19.05;;;;;;;16.79;73.32;100666.16;1688845;82;21303;-62
2023/09/15 07:23:39;;;;;;;27.67;21.17;;;;;;;16.71;73.20;100684.32;1725662;82;21188;-61
2023/09/15 07:26:47;;;;;;;23.67;19.20;;;;;;;16.58;73.33;100701.72;1715386;82;21318;-62
2023/09/15 07:29:54;;;;;;;22.60;16.87;;;;;;;16.50;73.46;100701.03;1721611;81;21264;-61
2023/09/15 07:33:03;;;;;;;20.23;16.80;;;;;;;16.38;73.55;100702.11;1718793;83;21402;-62
2023/09/15 07:36:10;;;;;;;19.10;17.07;;;;;;;16.30;73.74;100705.91;1729744;81;21514;-61
2023/09/15 07:39:15;;;;;;;15.25;12.50;;;;;;;16.27;74.02;100691.13;1726992;81;21370;-61
2023/09/15 07:42:21;;;;;;;13.48;11.00;;;;;;;16.30;74.25;100690.71;1727254;81;21359;-62
2023/09/15 07:45:27;;;;;;;11.43;9.55;;;;;;;16.34;74.38;100697.55;1727155;83;21378;-61
2023/09/15 07:48:36;;;;;;;11.28;9.95;;;;;;;16.37;74.48;100695.75;1719705;82;21775;-62
2023/09/15 07:51:42;;;;;;;13.38;10.60;;;;;;;16.42;74.58;100691.84;1720269;81;21303;-58
2023/09/15 07:54:48;;;;;;;11.35;10.05;;;;;;;16.46;74.62;100692.30;1717826;82;21369;-58
2023/09/15 07:57:56;;;;;;;12.13;9.63;;;;;;;16.49;74.67;100686.35;1735278;82;21934;-59
2023/09/15 08:01:03;;;;;;;12.35;11.05;;;;;;;16.55;74.70;100686.07;1721094;81;21461;-59
2023/09/15 08:04:12;;;;;;;12.15;10.65;;;;;;;16.65;74.85;100683.23;1723138;82;21274;-58
2023/09/15 08:07:19;;;;;;;14.35;11.45;;;;;;;16.85;75.06;100685.54;1703133;83;21720;-60
2023/09/15 08:10:26;;;;;;;15.38;11.63;;;;;;;17.12;75.28;100685.05;1722104;82;21286;-60
2023/09/15 08:13:33;;;;;;;13.40;11.68;;;;;;;17.43;75.37;100681.98;1731774;82;21842;-59
2023/09/15 08:16:32;;;;;;;11.20;9.93;;;;;;;17.67;75.24;100674.98;1713807;82;21382;-59
2023/09/15 08:19:38;;;;;;;11.05;9.15;;;;;;;17.79;74.98;100678.81;1720898;82;21266;-59
2023/09/15 08:22:44;;;;;;;11.83;10.23;;;;;;;17.85;74.80;100676.56;1721896;82;21357;-59
2023/09/15 08:25:51;;;;;;;10.70;9.35;;;;;;;17.93;74.82;100686.55;1721169;82;21683;-59
2023/09/15 08:28:58;;;;;;;11.78;10.03;;;;;;;18.05;74.81;100688.97;1736113;82;21215;-59
2023/09/15 08:32:04;;;;;;;13.38;10.65;;;;;;;18.20;74.87;100693.22;1723191;82;21193;-58
2023/09/15 08:35:10;;;;;;;13.25;11.70;;;;;;;18.35;74.84;100680.45;1740027;81;21354;-59
2023/09/15 08:38:17;;;;;;;12.28;11.00;;;;;;;18.46;74.85;100675.12;1699519;82;21372;-60
2023/09/15 09:32:34;;;;;;;14.50;13.03;;;;;;;19.06;74.84;100689.83;1877478;76;22269;-57
2023/09/15 09:35:40;;;;;;;14.78;12.95;;;;;;;19.05;74.63;100693.70;1810002;77;21440;-56
2023/09/15 09:38:47;;;;;;;15.10;13.45;;;;;;;19.09;74.57;100698.27;1772037;81;21351;-59
2023/09/15 09:41:54;;;;;;;15.55;13.95;;;;;;;19.08;74.42;100700.19;1771218;80;21331;-61
2023/09/15 09:45:03;;;;;;;15.40;13.15;;;;;;;18.98;74.34;100699.81;1782741;79;21375;-57
2023/09/15 09:48:12;;;;;;;15.00;13.30;;;;;;;18.91;74.35;100696.77;1782483;80;21320;-56
2023/09/15 09:51:20;;;;;;;18.92;14.95;;;;;;;18.83;74.31;100697.88;1679212;83;21800;-57
2023/09/15 09:54:27;;;;;;;16.97;14.20;;;;;;;18.79;74.46;100699.38;1783414;79;21332;-59
2023/09/15 09:57:34;;;;;;;15.35;13.62;;;;;;;18.85;74.79;100699.88;1796797;79;21331;-60
2023/09/15 10:00:43;;;;;;;16.65;14.65;;;;;;;18.91;74.98;100698.16;1789281;79;21935;-58
2023/09/15 10:03:49;;;;;;;19.82;16.10;;;;;;;18.99;75.12;100703.44;1795624;79;21946;-58
2023/09/15 10:06:55;;;;;;;16.77;14.83;;;;;;;19.03;75.12;100700.52;1771335;80;21372;-57
2023/09/15 10:10:02;;;;;;;17.23;14.53;;;;;;;19.04;75.10;100707.23;1782337;79;21213;-57
2023/09/15 10:13:08;;;;;;;23.95;16.37;;;;;;;19.11;75.16;100703.89;1790301;79;21243;-58
2023/09/15 10:16:14;;;;;;;20.10;16.60;;;;;;;19.17;75.03;100694.67;1773976;79;21390;-57
2023/09/15 10:19:24;;;;;;;18.35;16.10;;;;;;;19.26;75.07;100701.67;1780122;79;21795;-59
2023/09/15 10:22:31;;;;;;;20.08;17.10;;;;;;;19.49;75.21;100704.42;1777980;79;21193;-58
2023/09/15 10:25:53;;;;;;;19.62;15.98;;;;;;;19.72;75.32;100706.03;1782699;79;21716;-59
2023/09/15 10:28:50;;;;;;;;;;;;;;;19.94;75.34;100701.75;1801958;79;21302;-58
2023/09/15 10:31:41;;;;;;;26.75;16.65;;;;;;;20.13;75.27;100710.43;1748530;79;20577;-59
2023/09/15 10:34:49;;;;;;;24.05;16.82;;;;;;;20.25;75.19;100716.42;1748622;81;21630;-56
2023/09/15 10:38:02;;;;;;;27.65;23.18;;;;;;;20.35;75.04;100713.11;1723575;80;21216;-58
2023/09/15 10:41:09;;;;;;;27.30;20.90;;;;;;;20.44;74.93;100710.31;1755430;81;21227;-58
2023/09/15 10:44:14;;;;;;;28.15;19.17;;;;;;;20.47;74.83;100719.62;1745652;81;21156;-60
2023/09/15 10:47:46;;;;;;;25.08;18.70;;;;;;;20.48;74.69;100721.30;1750937;81;21212;-60
2023/09/15 10:50:53;;;;;;;26.27;18.73;;;;;;;20.40;74.59;100720.22;1757106;81;21756;-58
2023/09/15 10:54:04;;;;;;;26.05;20.37;;;;;;;20.32;74.69;100715.82;1757812;81;21205;-59
2023/09/15 10:57:10;;;;;;;27.45;19.92;;;;;;;20.29;74.68;100721.84;1744850;81;21768;-60
2023/09/15 11:00:18;;;;;;;31.60;19.98;;;;;;;20.16;74.61;100726.68;1753493;81;21237;-59
2023/09/15 11:03:25;;;;;;;28.25;19.92;;;;;;;19.94;74.55;100728.16;1742621;81;21331;-56
2023/09/15 11:06:32;;;;;;;27.82;19.32;;;;;;;19.79;74.74;100730.45;1737877;81;21320;-58
2023/09/15 11:09:39;;;;;;;28.70;20.37;;;;;;;19.66;74.86;100735.58;1748116;81;21182;-59
2023/09/15 11:12:44;;;;;;;30.05;20.55;;;;;;;19.51;75.03;100732.80;1754750;80;21220;-57
2023/09/15 11:15:50;;;;;;;27.85;19.80;;;;;;;19.40;75.23;100744.09;1677059;84;21280;-57
2023/09/15 11:18:59;;;;;;;24.12;17.92;;;;;;;19.28;75.38;100747.29;1746532;81;21208;-63
2023/09/15 11:22:10;;;;;;;27.73;19.20;;;;;;;19.13;75.31;100751.72;1751607;81;22078;-59
2023/09/15 11:25:16;;;;;;;24.05;18.17;;;;;;;18.91;75.36;100757.28;1722790;81;21737;-58
2023/09/15 11:28:23;;;;;;;25.37;18.12;;;;;;;18.80;75.56;100753.81;1747757;81;21204;-58
2023/09/15 11:31:33;;;;;;;23.67;19.20;;;;;;;18.74;75.72;100759.38;1762190;81;21239;-58
2023/09/15 11:34:41;;;;;;;23.02;17.12;;;;;;;18.67;75.83;100760.80;1775580;79;21788;-57
2023/09/15 11:37:49;;;;;;;26.42;18.60;;;;;;;18.60;75.89;100762.73;1781944;79;21709;-56
2023/09/15 11:40:56;;;;;;;23.57;18.65;;;;;;;18.56;75.88;100768.93;1774840;79;21243;-56
2023/09/15 11:44:06;;;;;;;34.43;26.95;;;;;;;18.49;75.98;100768.95;1773520;79;21351;-64
2023/09/15 11:47:11;;;;;;;24.60;19.02;;;;;;;18.49;76.09;100771.72;1782825;79;21366;-59
2023/09/15 11:50:22;;;;;;;23.52;18.17;;;;;;;18.46;76.05;100777.70;1772915;79;21359;-56
2023/09/15 11:53:36;;;;;;;24.85;17.87;;;;;;;18.39;76.01;100771.34;1774904;79;21576;-58
2023/09/15 11:56:42;;;;;;;25.57;19.30;;;;;;;18.34;76.08;100781.33;1772733;79;21311;-57
2023/09/15 11:59:50;;;;;;;25.72;19.05;;;;;;;18.29;76.04;100780.59;1772374;79;21189;-57
2023/09/15 12:03:03;;;;;;;27.07;18.97;;;;;;;18.27;76.16;100785.50;1792303;79;21209;-59
2023/09/15 12:06:10;;;;;;;24.52;18.98;;;;;;;18.27;76.33;100787.41;1709319;83;21954;-58
2023/09/15 12:09:15;;;;;;;28.85;20.60;;;;;;;18.23;76.23;100787.53;1791238;79;21169;-59
2023/09/15 12:12:25;;;;;;;29.45;20.85;;;;;;;18.17;76.24;100796.72;1778088;78;21783;-57
2023/09/15 12:15:33;;;;;;;31.75;20.55;;;;;;;18.10;76.24;100796.72;1770066;80;21240;-57
2023/09/15 12:18:45;;;;;;;30.02;21.10;;;;;;;18.09;76.36;100795.02;1770386;80;21285;-56
2023/09/15 12:22:02;;;;;;;31.97;20.68;;;;;;;18.07;76.44;100791.61;1786458;79;21887;-57
2023/09/15 12:25:08;;;;;;;27.25;20.02;;;;;;;18.08;76.51;100804.38;1794795;78;21203;-57
2023/09/15 12:28:14;;;;;;;26.42;19.95;;;;;;;18.06;76.43;100807.89;1797701;79;21355;-59
2023/09/15 12:31:25;;;;;;;29.37;20.43;;;;;;;17.98;76.31;100812.30;1789179;79;21732;-58
2023/09/15 12:34:31;;;;;;;33.28;21.87;;;;;;;17.86;76.29;100816.75;1783797;78;21229;-58
2023/09/15 12:37:39;;;;;;;28.05;20.55;;;;;;;17.79;76.48;100814.52;1791070;78;21821;-58
2023/09/15 12:40:44;;;;;;;28.35;19.30;;;;;;;17.71;76.54;100827.19;1781358;79;21333;-59
2023/09/15 12:43:57;;;;;;;25.65;18.70;;;;;;;17.65;76.74;100826.63;1785560;79;21552;-58
2023/09/15 12:47:04;;;;;;;27.98;18.25;;;;;;;17.59;76.72;100831.62;1774030;79;21219;-57
2023/09/15 12:50:13;;;;;;;26.15;18.12;;;;;;;17.49;76.66;100825.66;1745379;81;21753;-57
2023/09/15 12:53:18;;;;;;;25.20;18.35;;;;;;;17.42;76.76;100831.16;1783289;78;21868;-59
2023/09/15 12:56:23;;;;;;;26.65;17.95;;;;;;;17.36;76.87;100833.34;1788577;79;21348;-57
2023/09/15 12:59:35;;;;;;;28.87;19.50;;;;;;;17.29;76.87;100830.24;1791769;79;21695;-61
2023/09/15 13:02:41;;;;;;;26.57;18.27;;;;;;;17.18;76.89;100827.56;1800399;79;21223;-62
2023/09/15 13:05:49;;;;;;;24.30;16.80;;;;;;;17.09;76.94;100832.97;1785003;79;21764;-58
2023/09/15 13:08:56;;;;;;;23.42;16.97;;;;;;;17.03;77.08;100828.23;1800516;79;21188;-60
2023/09/15 13:12:04;;;;;;;22.75;16.12;;;;;;;17.02;77.21;100828.44;1799299;78;21216;-59
2023/09/15 13:15:13;;;;;;;20.20;14.18;;;;;;;16.98;77.22;100830.76;1770475;79;21759;-58
2023/09/15 13:18:23;;;;;;;17.87;13.48;;;;;;;16.93;77.11;100831.07;1754135;81;21751;-57
2023/09/15 13:21:33;;;;;;;19.32;14.00;;;;;;;16.85;77.16;100827.95;1796575;79;21409;-63
2023/09/15 13:24:35;;;;;;;20.05;14.18;;;;;;;16.83;77.26;100830.06;1802846;79;21335;-57
2023/09/15 13:27:48;;;;;;;26.40;18.85;;;;;;;16.88;77.43;100834.45;1870770;76;22705;-55
2023/09/15 13:30:54;;;;;;;29.37;17.95;;;;;;;16.80;77.39;100828.23;1782136;78;21725;-57
2023/09/15 13:33:59;;;;;;;28.42;20.72;;;;;;;16.70;77.41;100841.05;1767076;80;21736;-58
2023/09/15 13:37:06;;;;;;;31.33;21.40;;;;;;;16.61;77.38;100846.95;1765579;80;21383;-57
2023/09/15 13:40:13;;;;;;;28.07;21.17;;;;;;;16.57;77.59;100847.88;1786520;78;21424;-61
2023/09/15 13:43:21;;;;;;;30.02;22.10;;;;;;;16.56;77.69;100853.61;1799447;79;21335;-58
2023/09/15 13:46:26;;;;;;;32.13;21.45;;;;;;;16.53;77.67;100862.31;1798322;78;21252;-58
2023/09/15 13:49:32;;;;;;;33.08;22.82;;;;;;;16.47;77.72;100863.99;1772794;79;21379;-60
2023/09/15 13:52:39;;;;;;;39.18;25.02;;;;;;;16.42;77.72;100873.38;1767538;80;21395;-61
2023/09/15 13:55:47;;;;;;;37.73;25.37;;;;;;;16.32;77.71;100870.97;1766522;79;21347;-58
2023/09/15 13:58:54;;;;;;;37.75;22.95;;;;;;;16.25;77.73;100879.72;1766055;81;21737;-57
2023/09/15 14:02:00;;;;;;;37.33;24.47;;;;;;;16.21;77.91;100879.81;1764758;80;21183;-58
2023/09/15 14:05:09;;;;;;;37.63;24.98;;;;;;;16.19;78.03;100884.67;1761660;79;21214;-55
2023/09/15 14:08:16;;;;;;;38.55;25.82;;;;;;;16.21;78.14;100890.86;1767867;79;21908;-56
2023/09/15 14:11:22;;;;;;;37.55;25.20;;;;;;;16.21;78.22;100889.48;1782741;78;21339;-57
2023/09/15 14:14:27;;;;;;;37.10;24.45;;;;;;;16.19;78.29;100890.20;1805063;77;21851;-57
2023/09/15 14:17:33;;;;;;;35.98;25.48;;;;;;;16.21;78.37;100887.23;1788491;79;21369;-60
2023/09/15 14:20:40;;;;;;;38.00;25.82;;;;;;;16.18;78.34;100895.41;1808070;79;21184;-55
2023/09/15 14:23:46;;;;;;;34.08;22.80;;;;;;;16.13;78.40;100896.52;1787228;77;21364;-58
2023/09/15 14:26:52;;;;;;;38.23;25.30;;;;;;;16.15;78.53;100901.33;1761419;79;21192;-58
2023/09/15 14:29:58;;;;;;;36.85;24.40;;;;;;;16.13;78.38;100903.43;1758949;81;21378;-56
2023/09/15 14:33:03;;;;;;;37.85;26.07;;;;;;;16.06;78.34;100903.05;1796865;78;21801;-58
2023/09/15 14:36:11;;;;;;;34.58;24.10;;;;;;;16.01;78.41;100906.41;1760556;79;21196;-56
2023/09/15 14:39:19;;;;;;;36.65;24.63;;;;;;;16.01;78.53;100909.69;1716735;82;21183;-56
2023/09/15 14:42:26;;;;;;;36.05;24.43;;;;;;;15.99;78.56;100910.41;1726071;81;21380;-56
2023/09/15 14:45:32;;;;;;;32.38;22.30;;;;;;;15.96;78.66;100912.19;1794260;78;21262;-56
2023/09/15 14:48:38;;;;;;;31.42;21.42;;;;;;;15.95;78.77;100915.47;1794498;79;21176;-58
2023/09/15 14:51:44;;;;;;;30.57;20.92;;;;;;;15.95;78.81;100922.92;1788664;79;21184;-58
2023/09/15 14:54:50;;;;;;;26.45;18.73;;;;;;;15.93;78.86;100934.16;1792143;79;21219;-59
2023/09/15 14:58:08;;;;;;;29.18;18.12;;;;;;;15.91;78.92;100931.25;1791850;78;21161;-60
2023/09/15 15:01:14;;;;;;;28.47;17.90;;;;;;;15.89;78.94;100931.45;1799383;78;21180;-58
2023/09/15 15:04:22;;;;;;;23.62;16.42;;;;;;;15.87;79.02;100934.09;1730274;82;21296;-57
2023/09/15 15:07:28;;;;;;;25.20;17.05;;;;;;;15.88;79.13;100931.64;1800921;79;21200;-57
2023/09/15 15:10:34;;;;;;;23.77;16.70;;;;;;;15.88;79.20;100933.89;1798532;78;21185;-59
2023/09/15 15:13:39;;;;;;;24.18;14.98;;;;;;;15.91;79.23;100945.05;1798179;79;21203;-58